createdAt,value
2023-02-04T00:01:39.311Z,103.43
2023-02-04T00:04:08.381Z,101.13
2023-02-04T00:06:36.729Z,107.70
2023-02-04T00:09:06.244Z,106.67
2023-02-04T00:11:34.743Z,104.50
2023-02-04T00:14:03.393Z,100.03
2023-02-04T00:16:31.930Z,109.97
2023-02-04T00:19:01.972Z,113.27
2023-02-04T00:21:30.358Z,110.97
2023-02-04T00:23:59.020Z,121.73
2023-02-04T00:26:27.359Z,126.60
2023-02-04T00:28:56.277Z,125.60
2023-02-04T00:31:25.457Z,121.77
2023-02-04T00:33:54.180Z,114.77
2023-02-04T00:36:24.006Z,122.80
2023-02-04T00:38:53.331Z,126.07
2023-02-04T00:41:21.797Z,128.07
2023-02-04T00:43:50.641Z,135.30
2023-02-04T00:46:19.012Z,131.63
2023-02-04T00:48:47.656Z,111.00
2023-02-04T00:51:16.095Z,111.40
2023-02-04T00:53:46.355Z,118.53
2023-02-04T00:56:14.704Z,114.67
2023-02-04T00:58:44.352Z,114.27
2023-02-04T01:01:12.703Z,110.40
2023-02-04T01:03:41.328Z,128.80
2023-02-04T01:06:09.757Z,123.40
2023-02-04T01:08:38.801Z,124.07
2023-02-04T01:11:08.731Z,129.30
2023-02-04T01:13:37.428Z,129.63
2023-02-04T01:16:06.090Z,128.90
2023-02-04T01:18:34.878Z,129.27
2023-02-04T01:21:03.291Z,137.03
2023-02-04T01:23:32.221Z,131.00
2023-02-04T01:26:00.609Z,116.50
2023-02-04T01:28:30.668Z,127.23
2023-02-04T01:31:00.252Z,122.60
2023-02-04T01:33:30.039Z,125.53
2023-02-04T01:35:58.462Z,126.47
2023-02-04T01:38:27.199Z,121.07
2023-02-04T01:40:55.740Z,128.73
2023-02-04T01:43:25.203Z,117.70
2023-02-04T01:45:55.281Z,111.77
2023-02-04T01:48:25.250Z,111.43
2023-02-04T01:51:03.083Z,107.20
2023-02-04T01:53:32.606Z,119.27
2023-02-04T01:56:01.314Z,117.00
2023-02-04T01:58:32.740Z,115.50
2023-02-04T02:01:02.696Z,111.07
2023-02-04T02:03:32.474Z,115.10
2023-02-04T02:06:16.258Z,110.17
2023-02-04T02:08:44.940Z,112.90
2023-02-04T02:11:13.312Z,108.00
2023-02-04T02:13:42.059Z,112.70
2023-02-04T02:16:11.812Z,111.60
2023-02-04T02:18:40.810Z,116.53
2023-02-04T02:21:13.090Z,123.27
2023-02-04T02:23:53.060Z,127.23
2023-02-04T02:26:23.225Z,119.83
2023-02-04T02:28:52.902Z,125.33
2023-02-04T02:31:23.858Z,118.50
2023-02-04T02:33:52.641Z,116.00
2023-02-04T02:36:22.865Z,122.87
2023-02-04T02:38:55.961Z,109.17
2023-02-04T02:41:24.377Z,111.50
2023-02-04T02:43:53.082Z,105.03
2023-02-04T02:46:21.678Z,66.90
2023-02-04T02:48:50.475Z,121.83
2023-02-04T02:51:18.875Z,110.03
2023-02-04T02:53:51.555Z,121.33
2023-02-04T02:56:21.702Z,116.50
2023-02-04T02:58:50.455Z,120.23
2023-02-04T03:01:19.037Z,112.70
2023-02-04T03:03:51.839Z,121.83
2023-02-04T03:06:24.373Z,120.10
2023-02-04T03:08:56.851Z,113.83
2023-02-04T03:11:29.860Z,105.83
2023-02-04T03:14:01.041Z,95.90
2023-02-04T03:16:32.774Z,109.33
2023-02-04T03:19:02.795Z,108.83
2023-02-04T03:21:31.644Z,100.87
2023-02-04T03:24:00.559Z,110.73
2023-02-04T03:26:30.412Z,115.97
2023-02-04T03:29:00.529Z,113.43
2023-02-04T03:31:29.394Z,116.83
2023-02-04T03:33:58.469Z,114.63
2023-02-04T03:36:26.927Z,111.60
2023-02-04T03:38:55.636Z,115.43
2023-02-04T03:41:24.164Z,108.90
2023-02-04T03:43:54.231Z,98.63
2023-02-04T03:46:23.836Z,74.57
2023-02-04T03:48:53.109Z,72.83
2023-02-04T03:51:21.514Z,73.70
2023-02-04T03:53:50.412Z,98.47
2023-02-04T03:56:18.798Z,105.07
2023-02-04T03:58:47.418Z,105.60
2023-02-04T04:01:17.234Z,110.17
2023-02-04T04:03:46.204Z,114.60
2023-02-04T04:06:14.592Z,112.83
2023-02-04T04:08:43.255Z,99.57
2023-02-04T04:11:13.972Z,110.70
2023-02-04T04:13:42.698Z,106.67
2023-02-04T04:16:11.475Z,104.37
2023-02-04T04:18:41.794Z,105.37
2023-02-04T04:21:10.165Z,91.67
2023-02-04T04:23:39.200Z,97.77
2023-02-04T04:26:07.776Z,112.60
2023-02-04T04:28:36.488Z,105.23
2023-02-04T04:31:05.097Z,104.83
2023-02-04T04:33:33.848Z,104.57
2023-02-04T04:36:03.636Z,112.53
2023-02-04T04:38:32.303Z,98.50
2023-02-04T04:41:00.659Z,84.63
2023-02-04T04:43:29.347Z,71.77
2023-02-04T04:45:57.888Z,79.73
2023-02-04T04:48:26.639Z,94.63
2023-02-04T04:50:55.088Z,94.93
2023-02-04T04:53:25.096Z,91.03
2023-02-04T04:55:53.527Z,81.53
2023-02-04T04:58:22.173Z,85.20
2023-02-04T05:00:50.539Z,95.10
2023-02-04T05:03:19.250Z,101.43
2023-02-04T05:05:47.679Z,101.73
2023-02-04T05:08:17.036Z,100.17
2023-02-04T05:10:46.819Z,96.60
2023-02-04T05:13:16.089Z,81.70
2023-02-04T05:15:44.552Z,73.93
2023-02-04T05:18:13.332Z,64.23
2023-02-04T05:20:41.756Z,67.43
2023-02-04T05:23:10.476Z,62.17
2023-02-04T05:25:38.932Z,64.70
2023-02-04T05:28:09.100Z,63.87
2023-02-04T05:30:37.564Z,61.93
2023-02-04T05:33:06.204Z,59.83
2023-02-04T05:35:34.544Z,63.10
2023-02-04T05:38:03.127Z,57.80
2023-02-04T05:40:31.951Z,59.83
2023-02-04T05:43:01.015Z,60.83
2023-02-04T05:45:30.876Z,65.37
2023-02-04T05:47:59.589Z,74.97
2023-02-04T05:50:27.963Z,62.47
2023-02-04T05:53:10.097Z,63.33
2023-02-04T05:55:38.517Z,87.27
2023-02-04T05:58:07.222Z,69.63
2023-02-04T06:00:36.993Z,59.27
2023-02-04T06:03:05.801Z,57.47
2023-02-04T06:05:34.487Z,58.47
2023-02-04T06:08:03.191Z,56.53
2023-02-04T06:10:31.873Z,56.10
2023-02-04T06:13:00.672Z,55.00
2023-02-04T06:15:29.090Z,55.13
2023-02-04T06:17:59.448Z,56.73
2023-02-04T06:20:27.973Z,58.13
2023-02-04T06:22:56.586Z,58.27
2023-02-04T06:25:25.274Z,63.73
2023-02-04T06:27:53.978Z,79.03
2023-02-04T06:30:22.536Z,90.70
2023-02-04T06:32:51.257Z,78.23
2023-02-04T06:35:21.016Z,97.87
2023-02-04T06:37:49.681Z,66.47
2023-02-04T06:40:18.496Z,103.30
2023-02-04T06:42:47.157Z,102.33
2023-02-04T06:45:15.644Z,107.20
2023-02-04T06:47:44.264Z,110.07
2023-02-04T06:50:12.744Z,108.60
2023-02-04T06:52:42.779Z,113.67
2023-02-04T06:55:11.157Z,107.77
2023-02-04T06:57:40.176Z,96.30
2023-02-04T07:00:11.113Z,110.00
2023-02-04T07:02:40.272Z,106.37
2023-02-04T07:05:09.121Z,120.60
2023-02-04T07:07:37.837Z,117.43
2023-02-04T07:10:08.189Z,123.90
2023-02-04T07:12:37.090Z,138.20
2023-02-04T07:15:06.350Z,105.13
2023-02-04T07:17:35.058Z,103.37
2023-02-04T07:20:03.480Z,111.73
2023-02-04T07:22:32.310Z,123.40
2023-02-04T07:25:00.661Z,133.40
2023-02-04T07:27:30.719Z,130.20
2023-02-04T07:29:59.132Z,121.73
2023-02-04T07:32:32.778Z,133.87
2023-02-04T07:35:01.505Z,93.27
2023-02-04T07:37:30.616Z,77.43
2023-02-04T07:39:59.047Z,84.27
2023-02-04T07:42:28.074Z,95.13
2023-02-04T07:45:07.604Z,66.03
2023-02-04T07:47:36.288Z,65.73
2023-02-04T07:50:04.939Z,64.37
2023-02-04T07:52:33.632Z,72.73
2023-02-04T07:55:02.105Z,72.27
2023-02-04T07:57:31.087Z,65.30
2023-02-04T07:59:59.487Z,62.03
2023-02-04T08:02:29.818Z,61.70
2023-02-04T08:04:58.368Z,66.43
2023-02-04T08:07:27.001Z,59.73
2023-02-04T08:09:55.364Z,59.70
2023-02-04T08:12:24.014Z,61.07
2023-02-04T08:14:52.859Z,59.33
2023-02-04T08:17:21.683Z,63.13
2023-02-04T08:19:51.444Z,63.53
2023-02-04T08:22:20.236Z,61.47
2023-02-04T08:24:48.625Z,60.47
2023-02-04T08:27:17.343Z,62.57
2023-02-04T08:29:45.868Z,59.50
2023-02-04T08:32:14.533Z,62.03
2023-02-04T08:34:44.046Z,61.53
2023-02-04T08:37:14.092Z,63.30
2023-02-04T08:39:46.216Z,60.97
2023-02-04T08:42:15.289Z,64.83
2023-02-04T08:44:43.932Z,74.13
2023-02-04T08:47:13.001Z,64.00
2023-02-04T08:49:41.390Z,62.93
2023-02-04T08:52:10.695Z,62.80
2023-02-04T08:54:40.502Z,65.67
2023-02-04T08:57:09.204Z,62.30
2023-02-04T08:59:37.592Z,61.20
2023-02-04T09:02:06.221Z,62.03
2023-02-04T09:04:35.056Z,62.90
2023-02-04T09:07:03.887Z,62.20
2023-02-04T09:09:32.280Z,63.20
2023-02-04T09:12:03.257Z,62.10
2023-02-04T09:14:31.728Z,63.93
2023-02-04T09:17:00.362Z,63.23
2023-02-04T09:19:28.807Z,61.37
2023-02-04T09:21:57.407Z,61.57
2023-02-04T09:24:25.794Z,62.37
2023-02-04T09:26:54.468Z,61.53
2023-02-04T09:29:24.210Z,65.30
2023-02-04T09:31:52.937Z,61.43
2023-02-04T09:34:21.368Z,61.17
2023-02-04T09:36:49.978Z,61.17
2023-02-04T09:39:18.407Z,61.47
2023-02-04T09:41:47.119Z,65.53
2023-02-04T09:44:19.130Z,67.50
2023-02-04T09:46:52.260Z,68.87
2023-02-04T09:49:20.856Z,67.33
2023-02-04T09:51:50.884Z,100.00
2023-02-04T09:54:21.555Z,68.90
2023-02-04T09:56:50.927Z,80.73
2023-02-04T09:59:21.035Z,80.40
2023-02-04T10:01:56.452Z,71.53
2023-02-04T10:04:25.685Z,75.33
2023-02-04T10:06:54.797Z,73.93
2023-02-04T10:09:23.371Z,75.17
2023-02-04T10:11:52.093Z,76.13
2023-02-04T10:14:23.910Z,97.90
2023-02-04T10:16:59.271Z,81.57
2023-02-04T10:19:29.788Z,74.07
2023-02-04T10:21:59.506Z,78.20
2023-02-04T10:24:30.635Z,80.10
2023-02-04T10:27:09.446Z,77.30
2023-02-04T10:29:38.052Z,74.47
2023-02-04T10:32:22.969Z,78.70
2023-02-04T10:34:51.404Z,77.60
2023-02-04T10:37:22.027Z,86.07
2023-02-04T10:39:50.917Z,84.27
2023-02-04T10:42:23.808Z,79.30
2023-02-04T10:44:52.806Z,76.57
2023-02-04T10:47:24.635Z,75.53
2023-02-04T10:49:58.528Z,75.47
2023-02-04T10:52:35.403Z,87.33
2023-02-04T10:55:05.381Z,107.30
2023-02-04T10:57:39.478Z,90.43
2023-02-04T11:00:16.849Z,91.80
2023-02-04T11:02:55.043Z,81.77
2023-02-04T11:05:26.361Z,85.67
2023-02-04T11:07:55.235Z,105.17
2023-02-04T11:10:25.995Z,102.90
2023-02-04T11:13:03.853Z,113.93
2023-02-04T11:15:45.281Z,95.23
2023-02-04T11:18:30.085Z,80.97
2023-02-04T11:21:00.500Z,79.07
2023-02-04T11:23:37.881Z,74.03
2023-02-04T11:26:14.518Z,72.63
2023-02-04T11:28:52.196Z,79.13
2023-02-04T11:31:42.509Z,74.83
2023-02-04T11:34:26.279Z,70.63
2023-02-04T11:37:12.216Z,72.83
2023-02-04T11:39:42.533Z,73.40
2023-02-04T11:42:23.286Z,80.67
2023-02-04T11:44:54.999Z,80.53
2023-02-04T11:47:26.695Z,72.40
2023-02-04T11:49:59.995Z,71.73
2023-02-04T11:52:28.585Z,73.13
2023-02-04T11:54:59.378Z,108.83
2023-02-04T11:57:28.614Z,74.07
2023-02-04T11:59:57.353Z,105.67
2023-02-04T12:02:27.095Z,111.93
2023-02-04T12:04:59.403Z,91.47
2023-02-04T12:07:29.673Z,76.00
2023-02-04T12:09:58.932Z,70.77
2023-02-04T12:12:30.564Z,68.03
2023-02-04T12:15:03.385Z,74.97
2023-02-04T12:17:31.988Z,66.13
2023-02-04T12:20:02.087Z,74.90
2023-02-04T12:22:30.604Z,74.43
2023-02-04T12:24:59.333Z,66.20
2023-02-04T12:27:27.713Z,66.77
2023-02-04T12:29:56.731Z,67.07
2023-02-04T12:32:25.813Z,66.43
2023-02-04T12:34:54.457Z,66.50
2023-02-04T12:37:24.183Z,64.27
2023-02-04T12:39:53.152Z,64.23
2023-02-04T12:42:21.945Z,63.83
2023-02-04T12:44:50.568Z,63.73
2023-02-04T12:47:18.991Z,61.07
2023-02-04T12:49:48.397Z,61.20
2023-02-04T12:52:16.746Z,59.13
2023-02-04T12:54:46.857Z,62.00
2023-02-04T12:57:19.675Z,64.80
2023-02-04T12:59:49.231Z,68.37
2023-02-04T13:02:17.679Z,80.23
2023-02-04T13:04:46.400Z,100.80
2023-02-04T13:07:14.832Z,65.60
2023-02-04T13:09:45.122Z,58.20
2023-02-04T13:12:15.179Z,57.97
2023-02-04T13:14:44.281Z,59.87
2023-02-04T13:17:12.700Z,59.87
2023-02-04T13:19:41.325Z,59.13
2023-02-04T13:22:09.832Z,60.67
2023-02-04T13:24:38.774Z,61.93
2023-02-04T13:27:07.567Z,61.00
2023-02-04T13:29:37.552Z,58.60
2023-02-04T13:32:06.361Z,59.47
2023-02-04T13:34:35.054Z,57.77
2023-02-04T13:37:03.567Z,56.67
2023-02-04T13:39:32.480Z,57.77
2023-02-04T13:42:00.918Z,58.10
2023-02-04T13:44:29.866Z,59.90
2023-02-04T13:46:59.613Z,58.23
2023-02-04T13:49:28.281Z,58.30
2023-02-04T13:51:56.632Z,56.77
2023-02-04T13:54:25.401Z,58.03
2023-02-04T13:56:54.189Z,58.40
2023-02-04T13:59:22.987Z,59.67
2023-02-04T14:01:51.388Z,58.90
2023-02-04T14:04:21.499Z,58.73
2023-02-04T14:06:49.955Z,58.70
2023-02-04T14:09:18.775Z,58.53
2023-02-04T14:11:47.236Z,58.03
2023-02-04T14:14:16.275Z,55.77
2023-02-04T14:16:44.699Z,55.80
2023-02-04T14:19:14.166Z,60.03
2023-02-04T14:21:43.913Z,59.00
2023-02-04T14:24:12.562Z,59.73
2023-02-04T14:26:40.935Z,56.57
2023-02-04T14:29:11.159Z,54.97
2023-02-04T14:31:39.986Z,57.00
2023-02-04T14:34:08.747Z,54.33
2023-02-04T14:36:37.265Z,59.07
2023-02-04T14:39:07.363Z,59.00
2023-02-04T14:41:35.780Z,54.87
2023-02-04T14:44:04.412Z,56.20
2023-02-04T14:46:32.904Z,59.40
2023-02-04T14:49:01.562Z,55.90
2023-02-04T14:51:29.979Z,52.60
2023-02-04T14:53:58.639Z,56.20
2023-02-04T14:56:28.399Z,55.77
2023-02-04T14:58:57.204Z,55.80
2023-02-04T15:01:27.432Z,56.67
2023-02-04T15:03:56.408Z,54.80
2023-02-04T15:06:24.826Z,54.43
2023-02-04T15:08:53.580Z,55.73
2023-02-04T15:11:22.026Z,51.80
2023-02-04T15:13:52.120Z,52.00
2023-02-04T15:16:20.547Z,54.27
2023-02-04T15:18:49.330Z,58.17
2023-02-04T15:21:18.327Z,64.53
2023-02-04T15:23:47.385Z,93.40
2023-02-04T15:26:16.278Z,99.27
2023-02-04T15:28:44.933Z,101.93
2023-02-04T15:31:15.196Z,72.83
2023-02-04T15:33:44.172Z,71.53
2023-02-04T15:36:12.603Z,91.97
2023-02-04T15:38:41.305Z,85.93
2023-02-04T15:41:09.735Z,119.70
2023-02-04T15:43:38.508Z,105.23
2023-02-04T15:46:07.102Z,105.67
2023-02-04T15:48:37.107Z,107.27
2023-02-04T15:51:05.866Z,95.50
2023-02-04T15:53:35.192Z,68.50
2023-02-04T15:56:03.540Z,65.17
2023-02-04T15:58:32.470Z,69.60
2023-02-04T16:01:01.364Z,66.10
2023-02-04T16:03:30.108Z,61.63
2023-02-04T16:05:59.865Z,59.27
2023-02-04T16:08:28.540Z,59.67
2023-02-04T16:10:57.073Z,58.17
2023-02-04T16:13:25.767Z,60.33
2023-02-04T16:15:54.181Z,57.83
2023-02-04T16:18:24.565Z,57.00
2023-02-04T16:20:52.940Z,60.53
2023-02-04T16:23:23.025Z,62.07
2023-02-04T16:25:52.021Z,64.27
2023-02-04T16:28:20.753Z,71.63
2023-02-04T16:30:49.310Z,77.23
2023-02-04T16:33:18.013Z,88.83
2023-02-04T16:36:02.020Z,109.07
2023-02-04T16:38:32.596Z,101.70
2023-02-04T16:41:01.013Z,73.13
2023-02-04T16:43:30.321Z,87.70
2023-02-04T16:45:58.832Z,83.87
2023-02-04T16:48:28.641Z,98.37
2023-02-04T16:50:57.077Z,92.30
2023-02-04T16:53:25.896Z,84.83
2023-02-04T16:55:55.898Z,96.30
2023-02-04T16:58:24.711Z,113.80
2023-02-04T17:00:53.448Z,100.47
2023-02-04T17:03:22.126Z,101.70
2023-02-04T17:05:50.616Z,125.03
2023-02-04T17:08:19.630Z,127.03
2023-02-04T17:11:05.255Z,116.63
2023-02-04T17:13:35.548Z,113.93
2023-02-04T17:16:04.244Z,107.00
2023-02-04T17:18:33.706Z,103.37
2023-02-04T17:21:04.031Z,104.93
2023-02-04T17:23:33.287Z,110.77
2023-02-04T17:26:01.672Z,107.27
2023-02-04T17:28:30.440Z,105.27
2023-02-04T17:31:00.998Z,104.93
2023-02-04T17:33:29.794Z,108.63
2023-02-04T17:35:58.140Z,108.23
2023-02-04T17:38:28.096Z,107.43
2023-02-04T17:40:56.634Z,106.07
2023-02-04T17:43:26.738Z,99.03
2023-02-04T17:45:55.155Z,71.50
2023-02-04T17:48:25.321Z,93.37
2023-02-04T17:50:54.270Z,113.43
2023-02-04T17:53:23.480Z,109.50
2023-02-04T17:55:52.097Z,100.53
2023-02-04T17:58:23.700Z,108.93
2023-02-04T18:00:53.446Z,112.17
2023-02-04T18:03:26.778Z,110.33
2023-02-04T18:05:56.812Z,107.87
2023-02-04T18:08:30.543Z,102.40
2023-02-04T18:10:59.390Z,75.03
2023-02-04T18:13:32.933Z,82.03
2023-02-04T18:16:03.841Z,84.53
2023-02-04T18:18:36.637Z,109.23
2023-02-04T18:21:19.694Z,93.67
2023-02-04T18:23:49.702Z,58.67
2023-02-04T18:26:20.257Z,104.53
2023-02-04T18:28:50.949Z,111.73
2023-02-04T18:31:35.666Z,102.37
2023-02-04T18:34:16.794Z,105.07
2023-02-04T18:36:45.714Z,188.13
2023-02-04T18:39:19.988Z,92.47
2023-02-04T18:41:50.784Z,103.23
2023-02-04T18:44:30.250Z,114.47
2023-02-04T18:46:59.144Z,112.67
2023-02-04T18:49:30.883Z,118.47
2023-02-04T18:52:06.422Z,122.23
2023-02-04T18:54:36.973Z,114.40
2023-02-04T18:57:31.949Z,119.70
2023-02-04T19:00:30.822Z,104.17
2023-02-04T19:03:01.927Z,118.30
2023-02-04T19:05:35.144Z,122.63
2023-02-04T19:08:22.280Z,129.13
2023-02-04T19:10:51.934Z,126.67
2023-02-04T19:13:23.227Z,119.10
2023-02-04T19:15:58.785Z,121.03
2023-02-04T19:18:31.240Z,117.83
2023-02-04T19:21:20.356Z,123.90
2023-02-04T19:23:49.470Z,115.93
2023-02-04T19:26:30.192Z,112.93
2023-02-04T19:28:58.835Z,111.57
2023-02-04T19:31:33.714Z,115.33
2023-02-04T19:34:13.953Z,112.60
2023-02-04T19:36:44.252Z,113.10
2023-02-04T19:39:30.720Z,106.00
2023-02-04T19:42:00.846Z,113.43
2023-02-04T19:44:35.486Z,125.60
2023-02-04T19:47:21.551Z,105.00
2023-02-04T19:49:50.188Z,113.23
2023-02-04T19:52:47.347Z,119.30
2023-02-04T19:55:42.470Z,121.23
2023-02-04T19:58:19.418Z,126.57
2023-02-04T20:00:55.878Z,125.53
2023-02-04T20:03:36.749Z,123.07
2023-02-04T20:06:32.711Z,114.40
2023-02-04T20:09:06.126Z,117.43
2023-02-04T20:11:58.160Z,125.33
2023-02-04T20:14:42.400Z,112.53
2023-02-04T20:17:23.788Z,115.47
2023-02-04T20:19:52.594Z,113.80
2023-02-04T20:22:43.089Z,130.73
2023-02-04T20:25:42.124Z,128.20
2023-02-04T20:28:20.412Z,125.83
2023-02-04T20:30:50.563Z,129.90
2023-02-04T20:33:29.412Z,150.87
2023-02-04T20:36:28.404Z,132.80
2023-02-04T20:39:07.841Z,132.83
2023-02-04T20:41:39.990Z,143.70
2023-02-04T20:44:17.121Z,125.97
2023-02-04T20:46:46.379Z,142.07
2023-02-04T20:49:22.997Z,140.13
2023-02-04T20:51:59.973Z,139.33
2023-02-04T20:54:30.433Z,156.17
2023-02-04T20:57:15.930Z,195.27
2023-02-04T20:59:45.175Z,147.03
2023-02-04T21:02:18.539Z,134.00
2023-02-04T21:04:53.580Z,126.60
2023-02-04T21:07:23.736Z,133.37
2023-02-04T21:09:52.531Z,140.47
2023-02-04T21:12:25.485Z,147.80
2023-02-04T21:14:53.944Z,150.37
2023-02-04T21:17:23.026Z,149.80
2023-02-04T21:19:51.748Z,188.13
2023-02-04T21:22:20.567Z,153.93
2023-02-04T21:24:51.395Z,142.27
2023-02-04T21:27:22.145Z,164.33
2023-02-04T21:29:52.285Z,167.57
2023-02-04T21:32:21.171Z,175.13
2023-02-04T21:34:49.640Z,168.53
2023-02-04T21:37:18.504Z,160.47
2023-02-04T21:39:46.961Z,134.13
2023-02-04T21:42:16.579Z,130.57
2023-02-04T21:44:46.215Z,112.63
2023-02-04T21:47:17.921Z,112.53
2023-02-04T21:49:47.376Z,147.80
2023-02-04T21:52:16.286Z,132.63
2023-02-04T21:54:44.917Z,125.63
2023-02-04T21:57:16.387Z,126.53
2023-02-04T21:59:48.397Z,126.37
2023-02-04T22:02:19.094Z,140.10
2023-02-04T22:04:47.665Z,134.30
2023-02-04T22:07:16.523Z,126.20
2023-02-04T22:09:45.265Z,127.20
2023-02-04T22:12:14.143Z,125.77
2023-02-04T22:14:42.583Z,110.63
2023-02-04T22:17:11.468Z,85.40
2023-02-04T22:19:44.061Z,123.13
2023-02-04T22:22:12.847Z,123.30
2023-02-04T22:24:41.204Z,121.90
2023-02-04T22:27:10.197Z,114.53
2023-02-04T22:29:38.891Z,115.13
2023-02-04T22:32:07.586Z,91.77
2023-02-04T22:34:36.403Z,85.33
2023-02-04T22:37:06.635Z,113.47
2023-02-04T22:39:35.959Z,115.60
2023-02-04T22:42:06.484Z,120.13
2023-02-04T22:44:36.926Z,90.97
2023-02-04T22:47:06.349Z,111.40
2023-02-04T22:49:35.784Z,90.53
2023-02-04T22:52:06.471Z,77.97
2023-02-04T22:54:35.052Z,86.00
2023-02-04T22:57:03.668Z,82.40
2023-02-04T22:59:32.105Z,62.27
2023-02-04T23:02:00.763Z,84.03
2023-02-04T23:04:29.197Z,94.57
2023-02-04T23:06:58.025Z,106.40
2023-02-04T23:09:28.287Z,98.57
2023-02-04T23:11:58.061Z,69.60
2023-02-04T23:14:26.647Z,83.60
2023-02-04T23:16:55.347Z,89.87
2023-02-04T23:19:23.816Z,89.37
2023-02-04T23:21:52.524Z,79.03
2023-02-04T23:24:21.020Z,73.27
2023-02-04T23:26:51.035Z,69.80
2023-02-04T23:29:19.488Z,85.67
2023-02-04T23:31:48.242Z,86.80
2023-02-04T23:34:16.610Z,56.87
2023-02-04T23:36:46.602Z,54.50
2023-02-04T23:39:15.020Z,57.07
2023-02-04T23:41:43.711Z,60.63
2023-02-04T23:44:13.436Z,57.27
2023-02-04T23:46:42.960Z,54.87
2023-02-04T23:49:11.598Z,60.97
2023-02-04T23:51:40.343Z,66.57
2023-02-04T23:54:08.934Z,74.23
2023-02-04T23:56:37.565Z,58.00
2023-02-04T23:59:06.726Z,58.33
